createdAt,value
2023-04-14T00:00:27.982Z,99249.31
2023-04-14T00:00:59.458Z,99247.19
2023-04-14T00:01:30.874Z,99251.03
2023-04-14T00:02:02.298Z,99246.69
2023-04-14T00:02:33.907Z,99256.47
2023-04-14T00:03:05.621Z,99254.25
2023-04-14T00:03:37.316Z,99254.56
2023-04-14T00:04:09.032Z,99252.34
2023-04-14T00:04:40.704Z,99252.66
2023-04-14T00:05:12.340Z,99258.09
2023-04-14T00:05:43.800Z,99251.31
2023-04-14T00:06:15.198Z,99247.50
2023-04-14T00:06:46.600Z,99252.81
2023-04-14T00:07:17.974Z,99249.09
2023-04-14T00:07:49.317Z,99252.41
2023-04-14T00:08:20.796Z,99246.25
2023-04-14T00:08:52.154Z,99242.41
2023-04-14T00:09:23.509Z,99251.31
2023-04-14T00:09:54.904Z,99251.00
2023-04-14T00:10:26.334Z,99251.38
2023-04-14T00:10:57.702Z,99248.47
2023-04-14T00:11:29.072Z,99244.34
2023-04-14T00:12:00.411Z,99239.69
2023-04-14T00:12:31.824Z,99249.09
2023-04-14T00:13:03.341Z,99246.06
2023-04-14T00:13:34.746Z,99244.75
2023-04-14T00:14:06.172Z,99252.41
2023-04-14T00:14:37.571Z,99251.38
2023-04-14T00:15:08.989Z,99251.81
2023-04-14T00:15:40.415Z,99251.22
2023-04-14T00:16:11.809Z,99247.38
2023-04-14T00:16:43.242Z,99246.97
2023-04-14T00:17:14.744Z,99252.63
2023-04-14T00:17:46.246Z,99254.03
2023-04-14T00:18:17.686Z,99255.56
2023-04-14T00:18:49.133Z,99253.03
2023-04-14T00:19:20.589Z,99255.47
2023-04-14T00:19:51.959Z,99257.06
2023-04-14T00:20:23.330Z,99252.13
2023-04-14T00:20:54.720Z,99251.31
2023-04-14T00:21:26.049Z,99253.75
2023-04-14T00:21:57.437Z,99252.66
2023-04-14T00:22:28.799Z,99249.91
2023-04-14T00:23:00.171Z,99257.59
2023-04-14T00:23:31.571Z,99254.88
2023-04-14T00:24:03.025Z,99249.72
2023-04-14T00:24:34.519Z,99255.66
2023-04-14T00:25:05.964Z,99253.75
2023-04-14T00:25:37.443Z,99256.19
2023-04-14T00:26:08.944Z,99248.59
2023-04-14T00:26:40.347Z,99257.38
2023-04-14T00:27:11.716Z,99257.38
2023-04-14T00:27:43.112Z,99255.97
2023-04-14T00:28:14.533Z,99254.56
2023-04-14T00:28:46.142Z,99265.97
2023-04-14T00:29:17.652Z,99265.44
2023-04-14T00:29:49.100Z,99264.94
2023-04-14T00:30:20.502Z,99264.63
2023-04-14T00:30:51.996Z,99260.31
2023-04-14T00:31:23.472Z,99266.34
2023-04-14T00:31:54.998Z,99263.63
2023-04-14T00:32:26.390Z,99266.34
2023-04-14T00:32:57.809Z,99266.13
2023-04-14T00:33:29.282Z,99267.97
2023-04-14T00:34:00.625Z,99276.63
2023-04-14T00:34:32.032Z,99270.09
2023-04-14T00:35:03.525Z,99268.47
2023-04-14T00:35:35.170Z,99272.81
2023-04-14T00:36:06.607Z,99270.38
2023-04-14T00:36:38.038Z,99273.63
2023-04-14T00:37:09.476Z,99276.34
2023-04-14T00:37:40.886Z,99272.31
2023-04-14T00:38:12.264Z,99276.94
2023-04-14T00:38:43.646Z,99276.13
2023-04-14T00:39:15.003Z,99270.38
2023-04-14T00:39:46.513Z,99276.22
2023-04-14T00:40:17.931Z,99279.75
2023-04-14T00:40:49.309Z,99273.59
2023-04-14T00:41:20.673Z,99280.13
2023-04-14T00:41:52.092Z,99281.25
2023-04-14T00:42:23.500Z,99282.66
2023-04-14T00:42:54.881Z,99278.00
2023-04-14T00:43:26.267Z,99275.88
2023-04-14T00:43:57.698Z,99282.72
2023-04-14T00:44:29.052Z,99273.25
2023-04-14T00:45:00.498Z,99279.50
2023-04-14T00:45:32.000Z,99278.59
2023-04-14T00:46:03.388Z,99280.72
2023-04-14T00:46:34.866Z,99265.41
2023-04-14T00:47:06.310Z,99274.09
2023-04-14T00:47:37.699Z,99268.66
2023-04-14T00:48:09.101Z,99270.78
2023-04-14T00:48:40.509Z,99269.97
2023-04-14T00:49:11.902Z,99271.59
2023-04-14T00:49:43.287Z,99266.94
2023-04-14T00:50:14.629Z,99264.09
2023-04-14T00:50:46.046Z,99274.56
2023-04-14T00:51:17.427Z,99268.31
2023-04-14T00:51:48.790Z,99270.66
2023-04-14T00:52:20.237Z,99261.09
2023-04-14T00:52:51.571Z,99271.88
2023-04-14T00:53:22.969Z,99270.78
2023-04-14T00:53:54.344Z,99268.06
2023-04-14T00:54:25.760Z,99272.09
2023-04-14T00:54:57.113Z,99273.41
2023-04-14T00:55:28.485Z,99270.69
2023-04-14T00:55:59.879Z,99275.13
2023-04-14T00:56:31.220Z,99273.41
2023-04-14T00:57:02.655Z,99273.91
2023-04-14T00:57:34.078Z,99274.50
2023-04-14T00:58:05.485Z,99274.31
2023-04-14T00:58:36.956Z,99278.34
2023-04-14T00:59:08.314Z,99272.59
2023-04-14T00:59:39.720Z,99274.22
2023-04-14T01:00:11.085Z,99282.38
2023-04-14T01:00:42.452Z,99279.44
2023-04-14T01:01:13.912Z,99277.53
2023-04-14T01:01:45.449Z,99275.81
2023-04-14T01:02:16.935Z,99279.66
2023-04-14T01:02:48.688Z,99284.00
2023-04-14T01:03:20.385Z,99283.19
2023-04-14T01:03:52.024Z,99285.63
2023-04-14T01:04:24.214Z,99278.25
2023-04-14T01:04:57.399Z,99278.03
2023-04-14T01:05:29.007Z,99271.50
2023-04-14T01:06:00.422Z,99279.38
2023-04-14T01:06:31.837Z,99283.19
2023-04-14T01:07:03.252Z,99279.16
2023-04-14T01:07:34.606Z,99279.97
2023-04-14T01:08:06.065Z,99279.97
2023-04-14T01:08:37.433Z,99283.19
2023-04-14T01:09:08.787Z,99289.22
2023-04-14T01:09:40.212Z,99287.31
2023-04-14T01:10:11.570Z,99287.81
2023-04-14T01:10:42.935Z,99285.41
2023-04-14T01:11:14.403Z,99287.53
2023-04-14T01:11:45.800Z,99287.63
2023-04-14T01:12:17.198Z,99285.41
2023-04-14T01:12:48.563Z,99287.03
2023-04-14T01:13:20.026Z,99286.72
2023-04-14T01:13:51.405Z,99288.13
2023-04-14T01:14:22.774Z,99283.19
2023-04-14T01:14:54.106Z,99285.41
2023-04-14T01:15:25.486Z,99283.19
2023-04-14T01:15:56.882Z,99287.03
2023-04-14T01:16:28.278Z,99282.16
2023-04-14T01:16:59.608Z,99284.28
2023-04-14T01:17:31.106Z,99290.25
2023-04-14T01:18:02.593Z,99287.03
2023-04-14T01:18:34.034Z,99292.47
2023-04-14T01:19:05.454Z,99286.22
2023-04-14T01:19:36.842Z,99287.63
2023-04-14T01:20:08.203Z,99287.03
2023-04-14T01:20:39.650Z,99284.59
2023-04-14T01:21:10.996Z,99296.09
2023-04-14T01:21:42.359Z,99289.03
2023-04-14T01:22:13.747Z,99286.22
2023-04-14T01:22:45.106Z,99286.22
2023-04-14T01:23:16.458Z,99292.25
2023-04-14T01:23:47.825Z,99286.81
2023-04-14T01:24:19.370Z,99292.25
2023-04-14T01:24:50.801Z,99292.25
2023-04-14T01:25:22.221Z,99298.59
2023-04-14T01:25:53.607Z,99289.81
2023-04-14T01:26:25.017Z,99288.50
2023-04-14T01:26:56.411Z,99293.22
2023-04-14T01:27:27.753Z,99290.22
2023-04-14T01:27:59.098Z,99289.50
2023-04-14T01:28:30.500Z,99288.69
2023-04-14T01:29:02.150Z,99291.63
2023-04-14T01:29:33.690Z,99291.03
2023-04-14T01:30:05.122Z,99291.84
2023-04-14T01:30:36.450Z,99292.03
2023-04-14T01:31:07.844Z,99286.00
2023-04-14T01:31:39.316Z,99294.16
2023-04-14T01:32:10.713Z,99288.22
2023-04-14T01:32:42.111Z,99295.28
2023-04-14T01:33:13.493Z,99291.22
2023-04-14T01:33:44.871Z,99295.28
2023-04-14T01:34:16.322Z,99288.13
2023-04-14T01:34:47.744Z,99298.81
2023-04-14T01:35:19.169Z,99294.47
2023-04-14T01:35:50.550Z,99296.69
2023-04-14T01:36:21.941Z,99288.50
2023-04-14T01:36:53.351Z,99290.13
2023-04-14T01:37:24.761Z,99290.44
2023-04-14T01:37:56.157Z,99299.09
2023-04-14T01:38:27.576Z,99298.59
2023-04-14T01:38:59.171Z,99289.81
2023-04-14T01:39:30.708Z,99296.88
2023-04-14T01:40:02.134Z,99299.63
2023-04-14T01:40:33.597Z,99286.00
2023-04-14T01:41:04.959Z,99285.41
2023-04-14T01:41:36.326Z,99292.47
2023-04-14T01:42:07.717Z,99294.16
2023-04-14T01:42:39.087Z,99296.88
2023-04-14T01:43:10.506Z,99288.44
2023-04-14T01:43:41.939Z,99297.41
2023-04-14T01:44:13.312Z,99299.00
2023-04-14T01:44:44.664Z,99297.41
2023-04-14T01:45:16.051Z,99296.09
2023-04-14T01:45:47.548Z,99302.94
2023-04-14T01:46:19.007Z,99295.34
2023-04-14T01:46:50.446Z,99299.69
2023-04-14T01:47:21.965Z,99298.09
2023-04-14T01:47:53.530Z,99299.09
2023-04-14T01:48:24.992Z,99299.63
2023-04-14T01:48:56.399Z,99302.03
2023-04-14T01:49:27.809Z,99301.75
2023-04-14T01:49:59.284Z,99292.47
2023-04-14T01:50:30.762Z,99297.41
2023-04-14T01:51:02.157Z,99300.13
2023-04-14T01:51:33.508Z,99298.50
2023-04-14T01:52:04.874Z,99297.50
2023-04-14T01:52:36.293Z,99298.81
2023-04-14T01:53:07.722Z,99301.81
2023-04-14T01:53:39.106Z,99299.09
2023-04-14T01:54:10.491Z,99302.34
2023-04-14T01:54:41.872Z,99304.53
2023-04-14T01:55:13.267Z,99300.72
2023-04-14T01:55:44.637Z,99300.94
2023-04-14T01:56:16.025Z,99302.03
2023-04-14T01:56:47.442Z,99301.75
2023-04-14T01:57:18.882Z,99303.56
2023-04-14T01:57:50.245Z,99303.84
2023-04-14T01:58:21.669Z,99294.97
2023-04-14T01:58:53.043Z,99297.09
2023-04-14T01:59:24.425Z,99304.16
2023-04-14T01:59:55.848Z,99291.06
2023-04-14T02:00:27.250Z,99292.66
2023-04-14T02:00:58.747Z,99301.44
2023-04-14T02:01:30.248Z,99292.16
2023-04-14T02:02:01.714Z,99295.47
2023-04-14T02:02:33.348Z,99292.97
2023-04-14T02:03:04.953Z,99301.13
2023-04-14T02:03:36.449Z,99299.81
2023-04-14T02:04:10.246Z,99289.44
2023-04-14T02:04:41.688Z,99289.94
2023-04-14T02:05:13.082Z,99291.88
2023-04-14T02:05:44.438Z,99292.66
2023-04-14T02:06:15.827Z,99293.78
2023-04-14T02:06:47.220Z,99302.75
2023-04-14T02:07:18.624Z,99292.97
2023-04-14T02:07:50.214Z,99292.97
2023-04-14T02:08:21.625Z,99291.34
2023-04-14T02:08:53.028Z,99285.91
2023-04-14T02:09:24.382Z,99291.88
2023-04-14T02:09:55.814Z,99293.28
2023-04-14T02:10:27.228Z,99289.75
2023-04-14T02:10:58.579Z,99291.66
2023-04-14T02:11:29.939Z,99288.13
2023-04-14T02:12:01.354Z,99297.41
2023-04-14T02:12:32.754Z,99292.84
2023-04-14T02:13:04.107Z,99292.03
2023-04-14T02:13:35.516Z,99293.06
2023-04-14T02:14:06.889Z,99294.69
2023-04-14T02:14:38.244Z,99290.03
2023-04-14T02:15:09.706Z,99291.66
2023-04-14T02:15:41.059Z,99297.69
2023-04-14T02:16:12.547Z,99300.94
2023-04-14T02:16:44.007Z,99302.03
2023-04-14T02:17:15.386Z,99300.72
2023-04-14T02:17:46.940Z,99297.69
2023-04-14T02:18:18.369Z,99301.81
2023-04-14T02:18:49.765Z,99297.41
2023-04-14T02:19:21.239Z,99293.06
2023-04-14T02:19:52.661Z,99297.41
2023-04-14T02:20:24.115Z,99299.00
2023-04-14T02:20:55.475Z,99291.66
2023-04-14T02:21:26.907Z,99303.13
2023-04-14T02:21:58.401Z,99299.63
2023-04-14T02:22:29.791Z,99303.13
2023-04-14T02:23:01.205Z,99298.19
2023-04-14T02:23:32.572Z,99302.03
2023-04-14T02:24:04.006Z,99293.06
2023-04-14T02:24:35.387Z,99297.69
2023-04-14T02:25:06.774Z,99302.34
2023-04-14T02:25:38.229Z,99299.00
2023-04-14T02:26:09.608Z,99300.13
2023-04-14T02:26:41.023Z,99298.50
2023-04-14T02:27:12.367Z,99304.75
2023-04-14T02:27:43.706Z,99306.38
2023-04-14T02:28:15.158Z,99311.31
2023-04-14T02:28:46.528Z,99307.47
2023-04-14T02:29:17.896Z,99309.41
2023-04-14T02:29:49.307Z,99305.88
2023-04-14T02:30:20.675Z,99311.00
2023-04-14T02:30:52.229Z,99309.09
2023-04-14T02:31:23.662Z,99307.47
2023-04-14T02:31:55.199Z,99307.28
2023-04-14T02:32:26.582Z,99311.31
2023-04-14T02:32:58.098Z,99307.88
2023-04-14T02:33:29.483Z,99304.63
2023-04-14T02:34:00.888Z,99311.47
2023-04-14T02:34:32.287Z,99303.59
2023-04-14T02:35:03.684Z,99306.84
2023-04-14T02:35:35.097Z,99301.91
2023-04-14T02:36:06.552Z,99304.34
2023-04-14T02:36:38.016Z,99302.72
2023-04-14T02:37:09.408Z,99299.50
2023-04-14T02:37:40.761Z,99305.94
2023-04-14T02:38:12.161Z,99300.72
2023-04-14T02:38:43.655Z,99299.63
2023-04-14T02:39:15.010Z,99296.28
2023-04-14T02:39:46.436Z,99296.88
2023-04-14T02:40:17.803Z,99295.56
2023-04-14T02:40:49.138Z,99301.81
2023-04-14T02:41:20.655Z,99301.00
2023-04-14T02:41:52.052Z,99301.31
2023-04-14T02:42:23.406Z,99305.34
2023-04-14T02:42:54.844Z,99302.34
2023-04-14T02:43:26.228Z,99298.19
2023-04-14T02:43:57.596Z,99301.22
2023-04-14T02:44:29.009Z,99309.41
2023-04-14T02:45:00.375Z,99305.88
2023-04-14T02:45:31.768Z,99301.81
2023-04-14T02:46:03.195Z,99303.22
2023-04-14T02:46:34.811Z,99307.06
2023-04-14T02:47:06.275Z,99307.88
2023-04-14T02:47:37.710Z,99306.16
2023-04-14T02:48:09.152Z,99308.88
2023-04-14T02:48:40.496Z,99307.88
2023-04-14T02:49:13.036Z,99304.84
2023-04-14T02:49:44.552Z,99303.00
2023-04-14T02:50:15.917Z,99313.69
2023-04-14T02:50:47.287Z,99308.53
2023-04-14T02:51:18.703Z,99318.03
2023-04-14T02:51:50.137Z,99311.47
2023-04-14T02:52:21.521Z,99312.00
2023-04-14T02:52:53.146Z,99313.38
2023-04-14T02:53:24.551Z,99317.44
2023-04-14T02:53:55.941Z,99319.03
2023-04-14T02:54:27.351Z,99317.66
2023-04-14T02:54:58.800Z,99323.09
2023-04-14T02:55:30.149Z,99319.56
2023-04-14T02:56:01.623Z,99316.84
2023-04-14T02:56:33.035Z,99316.31
2023-04-14T02:57:04.521Z,99315.72
2023-04-14T02:57:35.899Z,99310.59
2023-04-14T02:58:07.290Z,99314.13
2023-04-14T02:58:38.741Z,99319.03
2023-04-14T02:59:10.119Z,99315.50
2023-04-14T02:59:41.489Z,99313.00
2023-04-14T03:00:12.883Z,99317.03
2023-04-14T03:00:44.241Z,99315.44
2023-04-14T03:01:15.677Z,99317.03
2023-04-14T03:01:47.189Z,99316.84
2023-04-14T03:02:18.992Z,99314.13
2023-04-14T03:02:50.519Z,99316.25
2023-04-14T03:03:22.011Z,99308.59
2023-04-14T03:03:53.619Z,99318.38
2023-04-14T03:04:25.078Z,99314.84
2023-04-14T03:04:56.533Z,99319.97
2023-04-14T03:05:27.910Z,99311.31
2023-04-14T03:05:59.229Z,99313.44
2023-04-14T03:06:30.621Z,99314.84
2023-04-14T03:07:02.068Z,99313.22
2023-04-14T03:07:33.624Z,99320.06
2023-04-14T03:08:05.070Z,99318.16
2023-04-14T03:08:36.454Z,99314.63
2023-04-14T03:09:07.815Z,99318.25
2023-04-14T03:09:39.274Z,99324.41
2023-04-14T03:10:10.705Z,99311.91
2023-04-14T03:10:42.134Z,99320.06
2023-04-14T03:11:13.520Z,99312.72
2023-04-14T03:11:44.943Z,99317.56
2023-04-14T03:12:16.336Z,99327.34
2023-04-14T03:12:47.793Z,99321.59
2023-04-14T03:13:19.229Z,99321.31
2023-04-14T03:13:50.611Z,99318.59
2023-04-14T03:14:21.977Z,99327.84
2023-04-14T03:14:53.415Z,99321.00
2023-04-14T03:15:24.799Z,99323.50
2023-04-14T03:15:56.289Z,99322.50
2023-04-14T03:16:27.819Z,99321.09
2023-04-14T03:16:59.409Z,99327.72
2023-04-14T03:17:30.800Z,99323.91
2023-04-14T03:18:02.243Z,99325.50
2023-04-14T03:18:33.650Z,99324.69
2023-04-14T03:19:05.057Z,99331.16
2023-04-14T03:19:36.429Z,99321.91
2023-04-14T03:20:07.853Z,99328.97
2023-04-14T03:20:39.217Z,99322.69
2023-04-14T03:21:10.622Z,99329.25
2023-04-14T03:21:41.995Z,99330.56
2023-04-14T03:22:13.386Z,99326.75
2023-04-14T03:22:44.815Z,99327.34
2023-04-14T03:24:48.882Z,99330.34
2023-04-14T03:25:20.344Z,99335.00
2023-04-14T03:25:53.385Z,99336.91
2023-04-14T03:26:24.841Z,99333.59
2023-04-14T03:26:56.275Z,99343.69
2023-04-14T03:27:27.654Z,99331.25
2023-04-14T03:27:59.056Z,99336.91
2023-04-14T03:28:30.530Z,99337.44
2023-04-14T03:29:02.177Z,99338.22
2023-04-14T03:29:33.856Z,99333.28
2023-04-14T03:30:05.332Z,99339.03
2023-04-14T03:30:36.734Z,99342.34
2023-04-14T03:31:08.183Z,99344.47
2023-04-14T03:31:39.669Z,99338.22
2023-04-14T03:32:11.133Z,99337.81
2023-04-14T03:32:42.648Z,99341.03
2023-04-14T03:33:14.125Z,99338.63
2023-04-14T03:33:45.529Z,99336.78
2023-04-14T03:34:16.949Z,99340.81
2023-04-14T03:34:48.454Z,99344.34
2023-04-14T03:35:20.011Z,99330.97
2023-04-14T03:35:51.566Z,99341.34
2023-04-14T03:36:22.983Z,99339.41
2023-04-14T03:36:54.442Z,99342.00
2023-04-14T03:37:25.876Z,99335.69
2023-04-14T03:37:57.302Z,99332.16
2023-04-14T03:38:28.823Z,99335.69
2023-04-14T03:39:00.385Z,99338.81
2023-04-14T03:39:31.901Z,99334.19
2023-04-14T03:40:03.388Z,99336.31
2023-04-14T03:40:34.912Z,99337.72
2023-04-14T03:41:06.352Z,99342.06
2023-04-14T03:41:37.855Z,99341.47
2023-04-14T03:42:09.361Z,99333.88
2023-04-14T03:42:41.137Z,99344.19
2023-04-14T03:43:12.556Z,99336.31
2023-04-14T03:43:44.016Z,99342.56
2023-04-14T03:44:15.451Z,99337.63
2023-04-14T03:44:46.873Z,99336.91
2023-04-14T03:45:18.341Z,99335.81
2023-04-14T03:45:49.766Z,99338.22
2023-04-14T03:46:21.673Z,99340.34
2023-04-14T03:46:53.503Z,99337.63
2023-04-14T03:47:25.723Z,99338.44
2023-04-14T03:47:57.558Z,99344.41
2023-04-14T03:48:29.121Z,99345.50
2023-04-14T03:49:00.741Z,99341.38
2023-04-14T03:49:32.437Z,99334.31
2023-04-14T03:50:03.854Z,99343.00
2023-04-14T03:50:35.340Z,99340.06
2023-04-14T03:51:06.775Z,99337.03
2023-04-14T03:51:38.207Z,99338.66
2023-04-14T03:52:09.617Z,99339.25
2023-04-14T03:52:41.052Z,99340.34
2023-04-14T03:53:12.596Z,99334.41
2023-04-14T03:53:44.100Z,99337.63
2023-04-14T03:54:15.563Z,99341.47
2023-04-14T03:54:46.932Z,99338.75
2023-04-14T03:55:18.341Z,99340.06
2023-04-14T03:55:49.776Z,99338.16
2023-04-14T03:56:21.145Z,99337.63
2023-04-14T03:56:52.579Z,99336.03
2023-04-14T03:57:24.045Z,99340.88
2023-04-14T03:57:55.446Z,99335.44
2023-04-14T03:58:26.988Z,99346.00
2023-04-14T03:58:58.543Z,99335.94
2023-04-14T03:59:30.238Z,99338.94
2023-04-14T04:00:04.204Z,99338.66
2023-04-14T04:00:38.423Z,99337.03
2023-04-14T04:01:09.939Z,99335.22
2023-04-14T04:01:41.360Z,99336.22
2023-04-14T04:02:12.889Z,99328.34
2023-04-14T04:02:44.564Z,99337.03
2023-04-14T04:03:16.227Z,99344.91
2023-04-14T04:03:48.017Z,99338.34
2023-04-14T04:04:19.797Z,99331.91
2023-04-14T04:04:51.438Z,99335.44
2023-04-14T04:05:23.002Z,99336.03
2023-04-14T04:05:54.522Z,99334.63
2023-04-14T04:06:26.141Z,99337.84
2023-04-14T04:06:57.620Z,99339.75
2023-04-14T04:07:29.054Z,99339.47
2023-04-14T04:08:00.718Z,99343.00
2023-04-14T04:08:32.201Z,99346.31
2023-04-14T04:09:03.722Z,99341.38
2023-04-14T04:09:35.257Z,99341.09
2023-04-14T04:10:06.664Z,99348.94
2023-04-14T04:10:38.113Z,99347.34
2023-04-14T04:11:09.570Z,99347.03
2023-04-14T04:11:41.059Z,99344.63
2023-04-14T04:12:12.547Z,99347.34
2023-04-14T04:12:43.998Z,99343.00
2023-04-14T04:13:15.442Z,99346.00
2023-04-14T04:13:49.781Z,99341.38
2023-04-14T04:14:21.193Z,99346.31
2023-04-14T04:14:52.654Z,99345.22
2023-04-14T04:15:24.070Z,99347.94
2023-04-14T04:15:55.669Z,99344.63
2023-04-14T04:16:27.109Z,99345.72
2023-04-14T04:16:58.632Z,99347.63
2023-04-14T04:17:30.064Z,99340.88
2023-04-14T04:18:01.579Z,99345.22
2023-04-14T04:18:33.101Z,99351.16
2023-04-14T04:19:04.519Z,99343.81
2023-04-14T04:19:35.984Z,99341.88
2023-04-14T04:20:07.547Z,99353.28
2023-04-14T04:20:38.967Z,99342.78
2023-04-14T04:21:10.393Z,99347.94
2023-04-14T04:21:41.805Z,99352.28
2023-04-14T04:22:13.332Z,99348.22
2023-04-14T04:22:44.808Z,99346.81
2023-04-14T04:23:16.247Z,99347.41
2023-04-14T04:23:47.654Z,99344.41
2023-04-14T04:24:19.154Z,99345.22
2023-04-14T04:24:50.573Z,99346.81
2023-04-14T04:25:22.043Z,99352.78
2023-04-14T04:25:53.459Z,99347.34
2023-04-14T04:26:24.915Z,99349.03
2023-04-14T04:26:56.341Z,99348.44
2023-04-14T04:27:28.608Z,99340.56
2023-04-14T04:28:00.210Z,99338.44
2023-04-14T04:28:31.704Z,99346.00
2023-04-14T04:29:03.351Z,99345.50
2023-04-14T04:29:34.826Z,99344.69
2023-04-14T04:30:06.291Z,99341.69
2023-04-14T04:30:37.722Z,99345.72
2023-04-14T04:31:09.198Z,99338.94
2023-04-14T04:31:40.603Z,99337.84
2023-04-14T04:32:12.099Z,99345.28
2023-04-14T04:32:43.684Z,99343.09
2023-04-14T04:33:15.229Z,99338.94
2023-04-14T04:33:46.688Z,99344.09
2023-04-14T04:34:18.079Z,99343.28
2023-04-14T04:34:49.592Z,99346.00
2023-04-14T04:35:21.022Z,99349.34
2023-04-14T04:35:52.430Z,99345.50
2023-04-14T04:36:23.872Z,99339.25
2023-04-14T04:36:55.303Z,99346.91
2023-04-14T04:37:26.720Z,99348.53
2023-04-14T04:37:58.170Z,99340.88
2023-04-14T04:38:29.572Z,99348.53
2023-04-14T04:39:01.196Z,99348.81
2023-04-14T04:39:32.844Z,99350.13
2023-04-14T04:40:04.260Z,99343.38
2023-04-14T04:40:35.708Z,99340.06
2023-04-14T04:41:07.161Z,99341.97
2023-04-14T04:41:38.540Z,99347.94
2023-04-14T04:42:09.958Z,99347.41
2023-04-14T04:42:41.469Z,99344.19
2023-04-14T04:43:12.988Z,99344.69
2023-04-14T04:43:44.423Z,99349.34
2023-04-14T04:44:15.876Z,99343.59
2023-04-14T04:44:47.371Z,99347.19
2023-04-14T04:45:18.768Z,99346.91
2023-04-14T04:45:50.248Z,99340.34
2023-04-14T04:46:21.748Z,99343.59
2023-04-14T04:46:53.409Z,99341.16
2023-04-14T04:47:24.963Z,99338.75
2023-04-14T04:47:56.503Z,99345.50
2023-04-14T04:48:28.075Z,99339.75
2023-04-14T04:48:59.786Z,99342.78
2023-04-14T04:49:31.419Z,99343.59
2023-04-14T04:50:02.851Z,99341.97
2023-04-14T04:50:34.361Z,99347.72
2023-04-14T04:51:05.810Z,99347.41
2023-04-14T04:51:37.236Z,99346.31
2023-04-14T04:52:08.630Z,99340.88
2023-04-14T04:52:40.021Z,99347.13
2023-04-14T04:53:11.515Z,99347.72
2023-04-14T04:53:43.086Z,99347.94
2023-04-14T04:54:14.586Z,99350.13
2023-04-14T04:54:46.011Z,99340.88
2023-04-14T04:55:17.466Z,99346.31
2023-04-14T04:55:48.885Z,99344.09
2023-04-14T04:56:20.310Z,99342.19
2023-04-14T04:56:51.744Z,99347.94
2023-04-14T04:57:23.172Z,99350.34
2023-04-14T04:57:54.622Z,99348.22
2023-04-14T04:58:26.044Z,99350.66
2023-04-14T04:58:57.530Z,99349.94
2023-04-14T04:59:28.939Z,99349.94
2023-04-14T05:00:00.383Z,99345.59
2023-04-14T05:00:34.842Z,99350.75
2023-04-14T05:01:06.282Z,99347.19
2023-04-14T05:01:37.794Z,99347.72
2023-04-14T05:02:09.301Z,99349.34
2023-04-14T05:02:41.067Z,99345.59
2023-04-14T05:03:12.578Z,99340.16
2023-04-14T05:03:44.036Z,99343.09
2023-04-14T05:04:15.525Z,99345.59
2023-04-14T05:04:47.182Z,99355.06
2023-04-14T05:05:18.668Z,99348.00
2023-04-14T05:05:50.114Z,99349.34
2023-04-14T05:06:21.535Z,99346.63
2023-04-14T05:06:52.918Z,99347.13
2023-04-14T05:07:24.448Z,99346.31
2023-04-14T05:07:55.938Z,99346.00
2023-04-14T05:08:27.397Z,99346.31
2023-04-14T05:08:58.903Z,99345.22
2023-04-14T05:09:32.985Z,99343.28
2023-04-14T05:10:04.395Z,99350.13
2023-04-14T05:10:35.874Z,99349.53
2023-04-14T05:11:07.325Z,99346.31
2023-04-14T05:11:38.766Z,99350.94
2023-04-14T05:12:10.212Z,99341.69
2023-04-14T05:12:41.645Z,99344.69
2023-04-14T05:13:13.076Z,99345.50
2023-04-14T05:13:44.498Z,99349.63
2023-04-14T05:14:15.925Z,99355.38
2023-04-14T05:14:47.439Z,99352.34
2023-04-14T05:15:18.847Z,99347.13
2023-04-14T05:15:50.330Z,99349.84
2023-04-14T05:16:21.907Z,99352.28
2023-04-14T05:16:53.382Z,99354.19
2023-04-14T05:17:24.905Z,99351.47
2023-04-14T05:17:56.461Z,99353.38
2023-04-14T05:18:27.924Z,99352.34
2023-04-14T05:18:59.807Z,99357.78
2023-04-14T05:19:31.482Z,99350.44
2023-04-14T05:20:02.943Z,99350.13
2023-04-14T05:20:35.083Z,99350.13
2023-04-14T05:21:06.585Z,99351.84
2023-04-14T05:21:38.020Z,99353.97
2023-04-14T05:22:09.523Z,99353.97
2023-04-14T05:22:40.970Z,99352.13
2023-04-14T05:23:12.402Z,99356.19
2023-04-14T05:23:43.848Z,99351.25
2023-04-14T05:24:15.291Z,99352.56
2023-04-14T05:24:46.868Z,99356.41
2023-04-14T05:25:18.358Z,99352.06
2023-04-14T05:25:49.822Z,99358.81
2023-04-14T05:26:44.468Z,99353.38
2023-04-14T05:27:14.613Z,99356.09
2023-04-14T05:27:46.404Z,99357.19
2023-04-14T05:28:17.844Z,99357.50
2023-04-14T05:28:49.371Z,99354.47
2023-04-14T05:29:20.785Z,99363.47
2023-04-14T05:29:52.280Z,99363.03
2023-04-14T05:30:23.754Z,99351.53
2023-04-14T05:30:55.408Z,99359.13
2023-04-14T05:31:26.972Z,99356.69
2023-04-14T05:31:58.533Z,99353.97
2023-04-14T05:32:29.992Z,99353.16
2023-04-14T05:33:01.585Z,99360.22
2023-04-14T05:33:33.070Z,99361.31
2023-04-14T05:34:04.745Z,99365.66
2023-04-14T05:34:36.270Z,99359.41
2023-04-14T05:35:07.853Z,99361.03
2023-04-14T05:35:39.323Z,99359.94
2023-04-14T05:36:10.821Z,99360.72
2023-04-14T05:36:42.244Z,99360.22
2023-04-14T05:37:13.682Z,99361.53
2023-04-14T05:37:45.085Z,99365.38
2023-04-14T05:38:16.540Z,99358.81
2023-04-14T05:38:48.029Z,99360.72
2023-04-14T05:39:19.442Z,99359.13
2023-04-14T05:39:50.862Z,99366.47
2023-04-14T05:40:22.313Z,99360.72
2023-04-14T05:40:53.720Z,99362.94
2023-04-14T05:41:25.170Z,99359.94
2023-04-14T05:41:56.589Z,99368.09
2023-04-14T05:42:28.071Z,99359.94
2023-04-14T05:42:59.475Z,99360.22
2023-04-14T05:43:30.902Z,99366.47
2023-04-14T05:44:02.612Z,99361.03
2023-04-14T05:44:34.208Z,99360.44
2023-04-14T05:45:05.647Z,99361.53
2023-04-14T05:45:37.145Z,99362.34
2023-04-14T05:46:08.577Z,99368.31
2023-04-14T05:46:40.098Z,99365.59
2023-04-14T05:47:11.556Z,99367.78
2023-04-14T05:47:43.001Z,99365.06
2023-04-14T05:48:14.435Z,99352.28
2023-04-14T05:48:45.927Z,99367.50
2023-04-14T05:49:17.362Z,99358.81
2023-04-14T05:49:48.787Z,99362.66
2023-04-14T05:50:20.204Z,99366.19
2023-04-14T05:50:51.700Z,99364.78
2023-04-14T05:51:23.087Z,99364.56
2023-04-14T05:51:54.495Z,99355.59
2023-04-14T05:52:25.925Z,99365.06
2023-04-14T05:52:57.350Z,99362.94
2023-04-14T05:53:28.772Z,99361.31
2023-04-14T05:54:00.540Z,99361.53
2023-04-14T05:54:32.223Z,99357.19
2023-04-14T05:55:03.814Z,99366.47
2023-04-14T05:55:35.247Z,99364.03
2023-04-14T05:56:06.669Z,99357.28
2023-04-14T05:56:38.087Z,99364.03
2023-04-14T05:57:09.578Z,99359.72
2023-04-14T05:57:40.998Z,99357.00
2023-04-14T05:58:12.454Z,99368.78
2023-04-14T05:58:43.895Z,99366.34
2023-04-14T05:59:15.388Z,99360.69
2023-04-14T05:59:46.827Z,99369.44
2023-04-14T06:00:18.249Z,99369.22
2023-04-14T06:00:49.672Z,99363.56
2023-04-14T06:01:21.244Z,99369.81
2023-04-14T06:01:52.735Z,99370.13
2023-04-14T06:02:24.355Z,99368.19
2023-04-14T06:02:56.267Z,99371.44
2023-04-14T06:03:28.087Z,99376.06
2023-04-14T06:03:59.979Z,99369.44
2023-04-14T06:04:32.106Z,99369.66
2023-04-14T06:05:04.034Z,99370.97
2023-04-14T06:05:35.495Z,99373.09
2023-04-14T06:06:06.924Z,99366.03
2023-04-14T06:06:38.433Z,99368.78
2023-04-14T06:07:09.870Z,99373.09
2023-04-14T06:07:41.286Z,99370.69
2023-04-14T06:08:12.729Z,99372.59
2023-04-14T06:08:44.216Z,99370.91
2023-04-14T06:09:15.643Z,99362.22
2023-04-14T06:09:47.204Z,99371.50
2023-04-14T06:10:18.659Z,99362.22
2023-04-14T06:10:50.107Z,99372.50
2023-04-14T06:11:21.687Z,99366.78
2023-04-14T06:11:53.129Z,99364.03